Sacramento, CA (94271)

11:18 AM PDT on August 21, 2014 (GMT -0700)
MIDTOWN | Change Station
CLOSE
Current Station
Personal Weather Station
Location: SACRAMENTO, CA
Elevation: 24 ft
Nearby Weather Stations

Elev 24 ft 38.57 °N, 121.48 °W | Updated 2 seconds ago

Clear
Clear
79.3 °F
Feels Like 80 °F
N
0.0
Wind Variable Wind from SSE
Gusts 0.0 mph

Today
High -- | Low -- °F
--% Chance of Precip.
Yesterday
High -- | Low -- °F
Precip. -- in
6:25 AM 7:51 PM
Waning Crescent, 13% visible
Pressure 29.95 in
Visibility 10.0 miles
Clouds Clear
Heat Index 80 °F
Dew Point 59 °F
Humidity 50%
Rainfall 0.00 in
Snow Depth Not available.
UV 2.0 out of 12
Pollen 6.60 out of 12
Ozone Good
PM2.5 Good
Flu Activity Not available.
METAR KSAC 211753Z 23003KT 10SM CLR 23/15 A2995 RMK AO2 SLP140 T02280150 10228 20150 50003

More Conditions Fewer Conditions

Pressure 29.95 in
Visibility 10.0 miles
Clouds Clear
Heat Index 80 °F
Dew Point 59 °F
Humidity 50%
Rainfall 0.00 in
Snow Depth Not available.
UV 2.0 out of 12
Pollen 6.60 out of 12
Ozone Good
PM2.5 Good
Flu Activity Not available.
METAR KSAC 211753Z 23003KT 10SM CLR 23/15 A2995 RMK AO2 SLP140 T02280150 10228 20150 50003

More Conditions Fewer Conditions

10-Day Weather Forecast

Almanac

Astronomy

Aug. 21, 2014 Rise Set
Actual Time 6:25 AM PDT 7:51 PM PDT
Civil Twilight 5:57 AM PDT 8:19 PM PDT
Nautical Twilight 5:24 AM PDT 8:53 PM PDT
Astronomical Twilight 4:48 AM PDT 9:28 PM PDT
Moon 3:01 AM PDT 5:23 PM PDT
Length of Visible Light 14h 22m
Length of Day
13h 26m
Tomorrow will be 2m 17s shorter.
Waning Crescent, 13% of the Moon is Illuminated
Today
Waning Crescent
Aug 25
New
Sep 2
First Quarter
Sep 8
Full
Sep 15
Last Quarter

Today's Extremes

State Highs State Lows

Community

WunderPhotos

Upload Photos

1,745,992 photos uploaded!

WunderBlogs® & News

Nearby

Air Quality

  Air Quality AQ Index Pollutant
Yesterday Good
OZONE
Yesterday Good
PM10
Current Good
PM2.5
Current Good
OZONE
Thursday Moderate
OZONE
Friday Good
OZONE
Saturday Good
OZONE
Sunday Moderate
OZONE
Monday Moderate
OZONE
Tuesday Moderate
OZONE

Snow Depth

Station Depth Elevation
Blue Lakes 0 in 8000 ft
Adin Mountain 0 in 6200 ft
Cedar Pass 1 in 7100 ft
Crowder Flat 0 in 5100 ft

Earthquake Activity

City Distance Mag. Time & Date
Berkeley, California 64 miles 2.6 7:41 PM PDT
2014-08-16
Minimum magnitude displayed is 2.5.

Coastal Water Temperatures

Place Temperature
No Stations Reporting

Nearby Weather Stations